sensor_id;sensor_type;location;lat;lon;timestamp;pressure;altitude;pressure_sealevel;temperature;humidity
65010;BME280;51556;50.002;22.014;2022-08-23T00:00:33;98770.23;;;21.60;73.99
65010;BME280;51556;50.002;22.014;2022-08-23T00:02:59;98771.63;;;21.58;74.01
65010;BME280;51556;50.002;22.014;2022-08-23T00:05:25;98772.14;;;21.56;73.83
65010;BME280;51556;50.002;22.014;2022-08-23T00:07:51;98771.70;;;21.55;74.07
65010;BME280;51556;50.002;22.014;2022-08-23T00:10:17;98772.20;;;21.55;73.98
65010;BME280;51556;50.002;22.014;2022-08-23T00:12:45;98771.03;;;21.52;73.89
65010;BME280;51556;50.002;22.014;2022-08-23T00:15:13;98773.78;;;21.49;73.95
65010;BME280;51556;50.002;22.014;2022-08-23T00:17:39;98773.58;;;21.47;73.95
65010;BME280;51556;50.002;22.014;2022-08-23T00:20:09;98772.29;;;21.46;74.21
65010;BME280;51556;50.002;22.014;2022-08-23T00:22:36;98773.59;;;21.45;74.04
65010;BME280;51556;50.002;22.014;2022-08-23T00:25:04;98768.65;;;21.46;73.97
65010;BME280;51556;50.002;22.014;2022-08-23T00:27:30;98766.42;;;21.47;74.08
65010;BME280;51556;50.002;22.014;2022-08-23T00:29:56;98767.65;;;21.50;74.18
65010;BME280;51556;50.002;22.014;2022-08-23T00:32:25;98772.39;;;21.51;74.12
65010;BME280;51556;50.002;22.014;2022-08-23T00:34:51;98768.14;;;21.53;74.07
65010;BME280;51556;50.002;22.014;2022-08-23T00:37:18;98764.35;;;21.49;74.27
65010;BME280;51556;50.002;22.014;2022-08-23T00:39:44;98760.68;;;21.43;74.48
65010;BME280;51556;50.002;22.014;2022-08-23T00:42:14;98763.20;;;21.39;74.59
65010;BME280;51556;50.002;22.014;2022-08-23T00:45:02;98755.41;;;21.37;74.64
65010;BME280;51556;50.002;22.014;2022-08-23T00:47:49;98760.23;;;21.38;74.47
65010;BME280;51556;50.002;22.014;2022-08-23T00:55:41;98753.75;;;21.35;74.44
65010;BME280;51556;50.002;22.014;2022-08-23T00:58:09;98751.67;;;21.34;74.62
65010;BME280;51556;50.002;22.014;2022-08-23T01:00:36;98759.33;;;21.32;74.46
65010;BME280;51556;50.002;22.014;2022-08-23T01:03:05;98765.11;;;21.32;74.54
65010;BME280;51556;50.002;22.014;2022-08-23T01:08:28;98757.61;;;21.37;74.69
65010;BME280;51556;50.002;22.014;2022-08-23T01:11:00;98762.48;;;21.38;74.81
65010;BME280;51556;50.002;22.014;2022-08-23T01:13:38;98758.63;;;21.32;75.02
65010;BME280;51556;50.002;22.014;2022-08-23T01:16:09;98755.73;;;21.28;75.07
65010;BME280;51556;50.002;22.014;2022-08-23T01:18:37;98756.79;;;21.28;75.10
65010;BME280;51556;50.002;22.014;2022-08-23T01:23:55;98754.08;;;21.29;75.11
65010;BME280;51556;50.002;22.014;2022-08-23T01:26:23;98752.91;;;21.30;75.13
65010;BME280;51556;50.002;22.014;2022-08-23T01:28:53;98754.70;;;21.30;75.11
65010;BME280;51556;50.002;22.014;2022-08-23T01:31:21;98754.19;;;21.27;74.95
65010;BME280;51556;50.002;22.014;2022-08-23T01:34:01;98748.85;;;21.25;74.85
65010;BME280;51556;50.002;22.014;2022-08-23T01:36:28;98740.42;;;21.25;74.88
65010;BME280;51556;50.002;22.014;2022-08-23T01:38:55;98732.17;;;21.23;74.80
65010;BME280;51556;50.002;22.014;2022-08-23T01:41:20;98730.41;;;21.23;74.67
65010;BME280;51556;50.002;22.014;2022-08-23T01:43:46;98735.83;;;21.22;74.51
65010;BME280;51556;50.002;22.014;2022-08-23T01:46:15;98746.55;;;21.22;74.47
65010;BME280;51556;50.002;22.014;2022-08-23T01:48:43;98754.99;;;21.24;74.48
65010;BME280;51556;50.002;22.014;2022-08-23T01:51:14;98757.79;;;21.18;74.30
65010;BME280;51556;50.002;22.014;2022-08-23T01:53:41;98758.66;;;21.12;74.50
65010;BME280;51556;50.002;22.014;2022-08-23T01:56:07;98761.14;;;21.10;74.46
65010;BME280;51556;50.002;22.014;2022-08-23T01:58:34;98765.23;;;21.06;74.55
65010;BME280;51556;50.002;22.014;2022-08-23T02:01:01;98773.05;;;20.92;75.19
65010;BME280;51556;50.002;22.014;2022-08-23T02:03:29;98777.55;;;20.76;75.74
65010;BME280;51556;50.002;22.014;2022-08-23T02:05:55;98781.09;;;20.64;76.03
65010;BME280;51556;50.002;22.014;2022-08-23T02:08:21;98782.68;;;20.64;76.23
65010;BME280;51556;50.002;22.014;2022-08-23T02:11:12;98791.70;;;20.63;76.23
65010;BME280;51556;50.002;22.014;2022-08-23T02:13:40;98793.54;;;20.65;76.26
65010;BME280;51556;50.002;22.014;2022-08-23T02:16:06;98789.02;;;20.68;76.19
65010;BME280;51556;50.002;22.014;2022-08-23T02:18:32;98782.50;;;20.69;75.88
65010;BME280;51556;50.002;22.014;2022-08-23T02:20:58;98776.30;;;20.71;75.67
65010;BME280;51556;50.002;22.014;2022-08-23T02:23:25;98777.91;;;20.74;75.49
65010;BME280;51556;50.002;22.014;2022-08-23T02:25:51;98774.98;;;20.74;75.39
65010;BME280;51556;50.002;22.014;2022-08-23T02:28:18;98774.20;;;20.73;74.99
65010;BME280;51556;50.002;22.014;2022-08-23T02:30:45;98767.61;;;20.73;75.12
65010;BME280;51556;50.002;22.014;2022-08-23T02:33:11;98768.58;;;20.74;74.97
65010;BME280;51556;50.002;22.014;2022-08-23T02:35:38;98773.45;;;20.76;74.90
65010;BME280;51556;50.002;22.014;2022-08-23T02:38:05;98779.48;;;20.79;74.97
65010;BME280;51556;50.002;22.014;2022-08-23T02:40:32;98779.15;;;20.76;75.04
65010;BME280;51556;50.002;22.014;2022-08-23T02:42:58;98775.18;;;20.74;74.91
65010;BME280;51556;50.002;22.014;2022-08-23T02:45:25;98770.02;;;20.76;74.90
65010;BME280;51556;50.002;22.014;2022-08-23T02:47:51;98769.46;;;20.77;74.99
65010;BME280;51556;50.002;22.014;2022-08-23T02:50:17;98768.25;;;20.78;75.17
65010;BME280;51556;50.002;22.014;2022-08-23T02:52:43;98774.79;;;20.81;75.25
65010;BME280;51556;50.002;22.014;2022-08-23T02:55:09;98782.38;;;20.76;75.31
65010;BME280;51556;50.002;22.014;2022-08-23T02:57:35;98784.16;;;20.69;75.51
65010;BME280;51556;50.002;22.014;2022-08-23T03:00:01;98786.70;;;20.65;75.50
65010;BME280;51556;50.002;22.014;2022-08-23T03:02:26;98786.45;;;20.64;75.66
65010;BME280;51556;50.002;22.014;2022-08-23T03:04:52;98796.39;;;20.65;75.57
65010;BME280;51556;50.002;22.014;2022-08-23T03:07:18;98799.19;;;20.66;75.80
65010;BME280;51556;50.002;22.014;2022-08-23T03:09:43;98802.79;;;20.71;75.96
65010;BME280;51556;50.002;22.014;2022-08-23T03:12:09;98804.84;;;20.70;75.93
65010;BME280;51556;50.002;22.014;2022-08-23T03:14:35;98811.30;;;20.69;75.95
65010;BME280;51556;50.002;22.014;2022-08-23T03:17:03;98816.09;;;20.67;75.97
65010;BME280;51556;50.002;22.014;2022-08-23T03:19:29;98818.14;;;20.64;76.13
65010;BME280;51556;50.002;22.014;2022-08-23T03:21:54;98821.36;;;20.66;76.26
65010;BME280;51556;50.002;22.014;2022-08-23T03:24:20;98820.84;;;20.68;76.28
65010;BME280;51556;50.002;22.014;2022-08-23T03:26:45;98818.45;;;20.69;76.27
65010;BME280;51556;50.002;22.014;2022-08-23T03:29:12;98820.29;;;20.71;76.19
65010;BME280;51556;50.002;22.014;2022-08-23T03:31:37;98821.98;;;20.73;76.33
65010;BME280;51556;50.002;22.014;2022-08-23T03:34:04;98824.39;;;20.74;76.34
65010;BME280;51556;50.002;22.014;2022-08-23T03:36:29;98828.45;;;20.75;76.27
65010;BME280;51556;50.002;22.014;2022-08-23T03:38:55;98833.36;;;20.80;76.27
65010;BME280;51556;50.002;22.014;2022-08-23T03:41:21;98837.77;;;20.86;76.19
65010;BME280;51556;50.002;22.014;2022-08-23T03:43:47;98837.84;;;20.87;76.05
65010;BME280;51556;50.002;22.014;2022-08-23T03:46:14;98844.02;;;20.88;76.18
65010;BME280;51556;50.002;22.014;2022-08-23T03:48:52;98838.88;;;20.90;76.06
65010;BME280;51556;50.002;22.014;2022-08-23T03:51:21;98844.66;;;20.89;75.99
65010;BME280;51556;50.002;22.014;2022-08-23T03:53:48;98851.21;;;20.90;76.07
65010;BME280;51556;50.002;22.014;2022-08-23T03:56:29;98845.50;;;20.90;75.92
65010;BME280;51556;50.002;22.014;2022-08-23T03:58:59;98849.28;;;20.87;75.84
65010;BME280;51556;50.002;22.014;2022-08-23T04:01:25;98847.10;;;20.85;75.79
65010;BME280;51556;50.002;22.014;2022-08-23T04:03:50;98848.64;;;20.84;75.77
65010;BME280;51556;50.002;22.014;2022-08-23T04:06:17;98844.58;;;20.81;75.60
65010;BME280;51556;50.002;22.014;2022-08-23T04:08:43;98844.79;;;20.81;75.53
65010;BME280;51556;50.002;22.014;2022-08-23T04:11:11;98846.77;;;20.80;75.33
65010;BME280;51556;50.002;22.014;2022-08-23T04:13:38;98850.46;;;20.79;75.46
65010;BME280;51556;50.002;22.014;2022-08-23T04:16:05;98854.31;;;20.76;75.48
65010;BME280;51556;50.002;22.014;2022-08-23T04:18:32;98862.20;;;20.70;75.66
65010;BME280;51556;50.002;22.014;2022-08-23T04:21:04;98869.73;;;20.67;75.61
65010;BME280;51556;50.002;22.014;2022-08-23T04:23:31;98870.90;;;20.66;75.49
65010;BME280;51556;50.002;22.014;2022-08-23T04:25:56;98866.27;;;20.66;75.73
65010;BME280;51556;50.002;22.014;2022-08-23T04:28:22;98869.52;;;20.68;75.76
65010;BME280;51556;50.002;22.014;2022-08-23T04:30:49;98878.65;;;20.68;75.51
65010;BME280;51556;50.002;22.014;2022-08-23T04:33:15;98881.62;;;20.66;75.57
65010;BME280;51556;50.002;22.014;2022-08-23T04:35:42;98882.09;;;20.67;75.52
65010;BME280;51556;50.002;22.014;2022-08-23T04:38:09;98883.92;;;20.69;75.38
65010;BME280;51556;50.002;22.014;2022-08-23T04:40:35;98887.95;;;20.70;75.39
65010;BME280;51556;50.002;22.014;2022-08-23T04:43:19;98889.64;;;20.69;75.49
65010;BME280;51556;50.002;22.014;2022-08-23T04:45:45;98895.42;;;20.68;75.64
65010;BME280;51556;50.002;22.014;2022-08-23T04:48:11;98892.92;;;20.68;75.60
65010;BME280;51556;50.002;22.014;2022-08-23T04:50:39;98894.12;;;20.69;75.78
65010;BME280;51556;50.002;22.014;2022-08-23T04:53:10;98896.70;;;20.73;75.83
65010;BME280;51556;50.002;22.014;2022-08-23T04:55:36;98902.27;;;20.73;75.91
65010;BME280;51556;50.002;22.014;2022-08-23T04:58:04;98904.08;;;20.75;76.11
65010;BME280;51556;50.002;22.014;2022-08-23T05:00:30;98909.46;;;20.77;76.21
65010;BME280;51556;50.002;22.014;2022-08-23T05:02:55;98913.26;;;20.81;76.43
65010;BME280;51556;50.002;22.014;2022-08-23T05:05:21;98915.85;;;20.85;76.45
65010;BME280;51556;50.002;22.014;2022-08-23T05:07:47;98917.27;;;20.90;76.32
65010;BME280;51556;50.002;22.014;2022-08-23T05:10:14;98923.66;;;20.95;76.20
65010;BME280;51556;50.002;22.014;2022-08-23T05:12:40;98926.19;;;21.02;76.21
65010;BME280;51556;50.002;22.014;2022-08-23T05:15:07;98927.20;;;21.05;76.08
65010;BME280;51556;50.002;22.014;2022-08-23T05:17:34;98922.93;;;21.09;76.11
65010;BME280;51556;50.002;22.014;2022-08-23T05:20:00;98921.79;;;21.15;76.01
65010;BME280;51556;50.002;22.014;2022-08-23T05:22:26;98921.45;;;21.19;75.83
65010;BME280;51556;50.002;22.014;2022-08-23T05:24:53;98924.98;;;21.20;75.66
65010;BME280;51556;50.002;22.014;2022-08-23T05:27:18;98927.75;;;21.21;75.81
65010;BME280;51556;50.002;22.014;2022-08-23T05:29:44;98923.99;;;21.21;75.77
65010;BME280;51556;50.002;22.014;2022-08-23T05:32:11;98919.14;;;21.22;75.83
65010;BME280;51556;50.002;22.014;2022-08-23T05:34:36;98920.33;;;21.25;75.80
65010;BME280;51556;50.002;22.014;2022-08-23T05:37:02;98923.36;;;21.27;75.73
65010;BME280;51556;50.002;22.014;2022-08-23T05:39:27;98925.92;;;21.29;75.58
65010;BME280;51556;50.002;22.014;2022-08-23T05:41:53;98926.48;;;21.31;75.67
65010;BME280;51556;50.002;22.014;2022-08-23T05:44:19;98926.57;;;21.34;75.78
65010;BME280;51556;50.002;22.014;2022-08-23T05:46:44;98927.55;;;21.38;75.76
65010;BME280;51556;50.002;22.014;2022-08-23T05:49:10;98932.90;;;21.43;75.81
65010;BME280;51556;50.002;22.014;2022-08-23T05:51:39;98934.55;;;21.52;75.58
65010;BME280;51556;50.002;22.014;2022-08-23T05:54:07;98937.71;;;21.55;75.33
65010;BME280;51556;50.002;22.014;2022-08-23T05:56:41;98944.20;;;21.59;75.44
65010;BME280;51556;50.002;22.014;2022-08-23T05:59:10;98942.70;;;21.62;75.42
65010;BME280;51556;50.002;22.014;2022-08-23T06:01:36;98945.45;;;21.68;75.55
65010;BME280;51556;50.002;22.014;2022-08-23T06:04:04;98949.53;;;21.69;75.31
65010;BME280;51556;50.002;22.014;2022-08-23T06:06:31;98949.98;;;21.70;75.40
65010;BME280;51556;50.002;22.014;2022-08-23T06:08:57;98951.98;;;21.76;75.37
65010;BME280;51556;50.002;22.014;2022-08-23T06:11:26;98953.14;;;21.82;75.22
65010;BME280;51556;50.002;22.014;2022-08-23T06:13:57;98951.27;;;21.83;75.02
65010;BME280;51556;50.002;22.014;2022-08-23T06:16:26;98952.27;;;21.82;74.81
65010;BME280;51556;50.002;22.014;2022-08-23T06:18:53;98952.63;;;21.84;74.92
65010;BME280;51556;50.002;22.014;2022-08-23T06:21:21;98950.17;;;21.92;74.88
65010;BME280;51556;50.002;22.014;2022-08-23T06:23:47;98954.15;;;22.01;74.80
65010;BME280;51556;50.002;22.014;2022-08-23T06:28:44;98953.11;;;22.08;74.75
65010;BME280;51556;50.002;22.014;2022-08-23T06:31:11;98956.34;;;22.10;74.88
65010;BME280;51556;50.002;22.014;2022-08-23T06:33:39;98955.61;;;22.13;74.87
65010;BME280;51556;50.002;22.014;2022-08-23T06:36:07;98956.40;;;22.16;74.85
65010;BME280;51556;50.002;22.014;2022-08-23T06:38:34;98953.05;;;22.18;74.80
65010;BME280;51556;50.002;22.014;2022-08-23T06:41:02;98949.23;;;22.23;75.13
65010;BME280;51556;50.002;22.014;2022-08-23T06:43:29;98952.15;;;22.22;75.23
65010;BME280;51556;50.002;22.014;2022-08-23T06:46:04;98951.46;;;22.22;75.30
65010;BME280;51556;50.002;22.014;2022-08-23T06:48:30;98954.02;;;22.24;75.20
65010;BME280;51556;50.002;22.014;2022-08-23T06:50:55;98960.05;;;22.27;75.01
65010;BME280;51556;50.002;22.014;2022-08-23T06:53:21;98956.04;;;22.32;75.00
65010;BME280;51556;50.002;22.014;2022-08-23T06:55:46;98958.41;;;22.38;74.88
65010;BME280;51556;50.002;22.014;2022-08-23T06:58:12;98958.54;;;22.43;74.86
65010;BME280;51556;50.002;22.014;2022-08-23T07:00:37;98959.02;;;22.48;74.85
65010;BME280;51556;50.002;22.014;2022-08-23T07:03:03;98961.56;;;22.54;74.59
65010;BME280;51556;50.002;22.014;2022-08-23T07:05:28;98966.73;;;22.59;74.45
65010;BME280;51556;50.002;22.014;2022-08-23T07:07:55;98966.21;;;22.65;74.28
65010;BME280;51556;50.002;22.014;2022-08-23T07:10:21;98967.45;;;22.73;74.25
65010;BME280;51556;50.002;22.014;2022-08-23T07:12:47;98970.82;;;22.77;74.12
65010;BME280;51556;50.002;22.014;2022-08-23T07:15:13;98973.88;;;22.84;74.20
65010;BME280;51556;50.002;22.014;2022-08-23T07:17:39;98977.83;;;22.91;73.76
65010;BME280;51556;50.002;22.014;2022-08-23T07:20:05;98977.92;;;22.94;73.61
65010;BME280;51556;50.002;22.014;2022-08-23T07:22:31;98982.21;;;23.02;73.41
65010;BME280;51556;50.002;22.014;2022-08-23T07:24:56;98979.23;;;23.08;73.73
65010;BME280;51556;50.002;22.014;2022-08-23T07:27:22;98979.21;;;23.15;73.66
65010;BME280;51556;50.002;22.014;2022-08-23T07:29:48;98983.48;;;23.21;73.15
65010;BME280;51556;50.002;22.014;2022-08-23T07:32:13;98986.36;;;23.28;73.10
65010;BME280;51556;50.002;22.014;2022-08-23T07:34:39;98985.35;;;23.36;73.03
65010;BME280;51556;50.002;22.014;2022-08-23T07:37:04;98980.74;;;23.40;72.75
65010;BME280;51556;50.002;22.014;2022-08-23T07:39:30;98981.73;;;23.47;72.61
65010;BME280;51556;50.002;22.014;2022-08-23T07:42:00;98983.02;;;23.55;72.35
65010;BME280;51556;50.002;22.014;2022-08-23T07:44:26;98984.95;;;23.64;72.20
65010;BME280;51556;50.002;22.014;2022-08-23T07:46:52;98986.49;;;23.73;71.93
65010;BME280;51556;50.002;22.014;2022-08-23T07:49:18;98987.26;;;23.83;72.18
65010;BME280;51556;50.002;22.014;2022-08-23T07:51:46;98989.31;;;23.88;72.22
65010;BME280;51556;50.002;22.014;2022-08-23T07:54:13;98990.05;;;23.90;71.85
65010;BME280;51556;50.002;22.014;2022-08-23T07:56:38;98991.84;;;23.96;72.02
65010;BME280;51556;50.002;22.014;2022-08-23T07:59:05;98992.42;;;24.07;71.51
65010;BME280;51556;50.002;22.014;2022-08-23T08:01:31;98988.00;;;24.16;70.87
65010;BME280;51556;50.002;22.014;2022-08-23T08:03:59;98991.11;;;24.26;70.41
65010;BME280;51556;50.002;22.014;2022-08-23T08:08:58;98995.77;;;24.48;70.37
65010;BME280;51556;50.002;22.014;2022-08-23T08:11:26;98996.83;;;24.58;69.57
65010;BME280;51556;50.002;22.014;2022-08-23T08:13:52;98998.50;;;24.71;69.40
65010;BME280;51556;50.002;22.014;2022-08-23T08:16:25;98994.14;;;24.81;68.96
65010;BME280;51556;50.002;22.014;2022-08-23T08:18:54;98995.80;;;24.92;68.40
65010;BME280;51556;50.002;22.014;2022-08-23T08:21:20;99001.94;;;25.02;68.15
65010;BME280;51556;50.002;22.014;2022-08-23T08:23:46;98999.48;;;25.07;67.01
65010;BME280;51556;50.002;22.014;2022-08-23T08:26:11;99005.58;;;25.12;66.84
65010;BME280;51556;50.002;22.014;2022-08-23T08:28:37;99004.20;;;25.19;67.42
65010;BME280;51556;50.002;22.014;2022-08-23T08:31:03;98998.98;;;25.26;67.64
65010;BME280;51556;50.002;22.014;2022-08-23T08:33:30;98999.41;;;25.35;67.39
65010;BME280;51556;50.002;22.014;2022-08-23T08:35:56;99001.67;;;25.44;66.78
65010;BME280;51556;50.002;22.014;2022-08-23T08:38:23;99000.77;;;25.48;66.58
65010;BME280;51556;50.002;22.014;2022-08-23T08:40:57;99000.83;;;25.47;66.31
65010;BME280;51556;50.002;22.014;2022-08-23T08:46:13;98997.41;;;25.48;66.29
65010;BME280;51556;50.002;22.014;2022-08-23T08:48:48;98997.76;;;25.57;66.14
65010;BME280;51556;50.002;22.014;2022-08-23T08:54:18;98997.59;;;25.74;65.62
65010;BME280;51556;50.002;22.014;2022-08-23T08:56:50;98995.48;;;25.81;65.38
65010;BME280;51556;50.002;22.014;2022-08-23T08:59:45;98997.16;;;25.86;65.25
65010;BME280;51556;50.002;22.014;2022-08-23T09:02:16;99000.27;;;25.84;64.73
65010;BME280;51556;50.002;22.014;2022-08-23T09:04:43;98998.70;;;25.86;65.37
65010;BME280;51556;50.002;22.014;2022-08-23T09:17:57;99008.68;;;26.04;64.68
65010;BME280;51556;50.002;22.014;2022-08-23T09:20:28;99008.81;;;26.12;64.93
65010;BME280;51556;50.002;22.014;2022-08-23T09:25:28;99001.95;;;26.33;64.60
65010;BME280;51556;50.002;22.014;2022-08-23T09:27:54;99002.27;;;26.45;64.32
65010;BME280;51556;50.002;22.014;2022-08-23T09:30:20;99002.58;;;26.54;64.04
65010;BME280;51556;50.002;22.014;2022-08-23T09:32:46;98993.85;;;26.64;63.45
65010;BME280;51556;50.002;22.014;2022-08-23T09:37:57;98995.00;;;26.82;62.85
65010;BME280;51556;50.002;22.014;2022-08-23T09:40:47;98995.84;;;26.95;62.93
65010;BME280;51556;50.002;22.014;2022-08-23T09:43:17;98994.92;;;27.08;61.74
65010;BME280;51556;50.002;22.014;2022-08-23T09:51:17;98991.56;;;27.38;60.99
65010;BME280;51556;50.002;22.014;2022-08-23T09:56:36;98992.63;;;27.62;60.82
65010;BME280;51556;50.002;22.014;2022-08-23T09:59:19;98991.91;;;27.72;60.86
65010;BME280;51556;50.002;22.014;2022-08-23T10:01:47;98990.65;;;27.83;60.51
65010;BME280;51556;50.002;22.014;2022-08-23T10:04:21;98985.27;;;27.87;58.23
65010;BME280;51556;50.002;22.014;2022-08-23T10:06:49;98985.83;;;27.89;59.03
65010;BME280;51556;50.002;22.014;2022-08-23T10:09:24;98986.88;;;27.98;59.02
65010;BME280;51556;50.002;22.014;2022-08-23T10:11:50;98988.69;;;27.94;57.66
65010;BME280;51556;50.002;22.014;2022-08-23T10:14:18;98990.36;;;27.88;57.51
65010;BME280;51556;50.002;22.014;2022-08-23T10:22:48;98983.64;;;28.14;57.79
65010;BME280;51556;50.002;22.014;2022-08-23T10:28:03;98988.39;;;28.37;56.44
65010;BME280;51556;50.002;22.014;2022-08-23T10:31:18;98987.87;;;28.46;55.87
65010;BME280;51556;50.002;22.014;2022-08-23T10:34:26;98990.16;;;28.48;55.35
65010;BME280;51556;50.002;22.014;2022-08-23T10:39:25;98993.45;;;28.54;54.29
65010;BME280;51556;50.002;22.014;2022-08-23T10:44:53;98989.20;;;28.48;55.35
65010;BME280;51556;50.002;22.014;2022-08-23T10:47:36;98988.02;;;28.66;55.29
65010;BME280;51556;50.002;22.014;2022-08-23T10:50:13;98982.62;;;28.78;54.60
65010;BME280;51556;50.002;22.014;2022-08-23T10:52:51;98985.42;;;28.84;53.61
65010;BME280;51556;50.002;22.014;2022-08-23T10:55:24;98989.48;;;28.90;53.51
65010;BME280;51556;50.002;22.014;2022-08-23T10:58:07;98989.05;;;29.06;52.80
65010;BME280;51556;50.002;22.014;2022-08-23T11:00:35;98985.98;;;29.21;52.54
65010;BME280;51556;50.002;22.014;2022-08-23T11:03:20;98982.83;;;29.35;51.59
65010;BME280;51556;50.002;22.014;2022-08-23T11:09:27;98986.69;;;29.41;50.01
65010;BME280;51556;50.002;22.014;2022-08-23T11:17:01;98985.13;;;29.22;50.19
65010;BME280;51556;50.002;22.014;2022-08-23T11:22:27;98984.73;;;29.24;50.62
65010;BME280;51556;50.002;22.014;2022-08-23T11:24:55;98983.92;;;29.32;51.37
65010;BME280;51556;50.002;22.014;2022-08-23T11:27:26;98978.47;;;29.42;51.07
65010;BME280;51556;50.002;22.014;2022-08-23T11:29:52;98983.64;;;29.59;50.58
65010;BME280;51556;50.002;22.014;2022-08-23T11:32:26;98985.14;;;29.75;50.73
65010;BME280;51556;50.002;22.014;2022-08-23T11:37:57;98975.30;;;29.92;49.50
65010;BME280;51556;50.002;22.014;2022-08-23T11:40:40;98976.52;;;29.88;48.39
65010;BME280;51556;50.002;22.014;2022-08-23T11:43:23;98981.32;;;29.84;49.71
65010;BME280;51556;50.002;22.014;2022-08-23T11:45:50;98977.59;;;29.76;49.24
65010;BME280;51556;50.002;22.014;2022-08-23T11:51:20;98979.77;;;29.64;50.47
65010;BME280;51556;50.002;22.014;2022-08-23T11:53:57;98976.88;;;29.72;49.79
65010;BME280;51556;50.002;22.014;2022-08-23T11:56:54;98977.03;;;29.72;50.22
65010;BME280;51556;50.002;22.014;2022-08-23T11:59:37;98973.77;;;29.76;50.17
65010;BME280;51556;50.002;22.014;2022-08-23T12:16:24;98966.70;;;30.93;48.45
65010;BME280;51556;50.002;22.014;2022-08-23T12:18:54;98967.10;;;30.98;47.35
65010;BME280;51556;50.002;22.014;2022-08-23T12:23:58;98964.41;;;31.16;48.07
65010;BME280;51556;50.002;22.014;2022-08-23T12:29:01;98959.64;;;31.29;46.97
65010;BME280;51556;50.002;22.014;2022-08-23T12:31:43;98961.81;;;31.31;47.29
65010;BME280;51556;50.002;22.014;2022-08-23T12:34:24;98963.71;;;31.47;47.36
65010;BME280;51556;50.002;22.014;2022-08-23T12:39:51;98963.02;;;31.77;47.05
65010;BME280;51556;50.002;22.014;2022-08-23T12:42:25;98961.41;;;31.83;46.96
65010;BME280;51556;50.002;22.014;2022-08-23T12:45:07;98960.19;;;31.90;46.61
65010;BME280;51556;50.002;22.014;2022-08-23T12:47:35;98960.33;;;31.98;46.24
65010;BME280;51556;50.002;22.014;2022-08-23T12:52:36;98958.30;;;31.96;45.40
65010;BME280;51556;50.002;22.014;2022-08-23T12:55:16;98956.94;;;31.73;45.36
65010;BME280;51556;50.002;22.014;2022-08-23T12:57:43;98958.53;;;31.55;46.03
65010;BME280;51556;50.002;22.014;2022-08-23T13:02:55;98953.38;;;31.37;46.68
65010;BME280;51556;50.002;22.014;2022-08-23T13:05:44;98954.05;;;31.46;47.07
65010;BME280;51556;50.002;22.014;2022-08-23T13:08:15;98952.27;;;31.57;46.19
65010;BME280;51556;50.002;22.014;2022-08-23T13:10:44;98951.95;;;31.66;46.37
65010;BME280;51556;50.002;22.014;2022-08-23T13:13:15;98951.00;;;31.79;45.56
65010;BME280;51556;50.002;22.014;2022-08-23T13:23:48;98944.40;;;31.94;44.10
65010;BME280;51556;50.002;22.014;2022-08-23T13:29:01;98943.73;;;31.56;43.85
65010;BME280;51556;50.002;22.014;2022-08-23T13:32:23;98941.79;;;31.32;44.26
65010;BME280;51556;50.002;22.014;2022-08-23T13:37:00;98946.23;;;30.79;45.28
65010;BME280;51556;50.002;22.014;2022-08-23T13:39:29;98943.18;;;30.60;46.00
65010;BME280;51556;50.002;22.014;2022-08-23T13:41:56;98946.90;;;30.43;46.61
65010;BME280;51556;50.002;22.014;2022-08-23T13:44:22;98944.60;;;30.27;46.78
65010;BME280;51556;50.002;22.014;2022-08-23T13:46:49;98946.11;;;30.09;47.30
65010;BME280;51556;50.002;22.014;2022-08-23T13:49:21;98946.33;;;29.94;47.53
65010;BME280;51556;50.002;22.014;2022-08-23T13:54:23;98956.77;;;29.49;48.84
65010;BME280;51556;50.002;22.014;2022-08-23T13:56:53;98956.38;;;29.41;49.44
65010;BME280;51556;50.002;22.014;2022-08-23T13:59:56;98955.36;;;29.37;49.20
65010;BME280;51556;50.002;22.014;2022-08-23T14:02:16;98948.46;;;29.26;49.26
65010;BME280;51556;50.002;22.014;2022-08-23T14:04:42;98948.02;;;29.13;48.94
65010;BME280;51556;50.002;22.014;2022-08-23T14:07:08;98948.99;;;29.07;49.40
65010;BME280;51556;50.002;22.014;2022-08-23T14:09:35;98952.69;;;28.99;49.46
65010;BME280;51556;50.002;22.014;2022-08-23T14:12:06;98952.86;;;28.88;49.90
65010;BME280;51556;50.002;22.014;2022-08-23T14:14:33;98957.64;;;28.85;50.27
65010;BME280;51556;50.002;22.014;2022-08-23T14:17:01;98959.00;;;28.84;50.19
65010;BME280;51556;50.002;22.014;2022-08-23T14:19:27;98961.23;;;28.85;49.42
65010;BME280;51556;50.002;22.014;2022-08-23T14:21:55;98962.58;;;28.88;49.15
65010;BME280;51556;50.002;22.014;2022-08-23T14:24:20;98956.76;;;28.85;48.78
65010;BME280;51556;50.002;22.014;2022-08-23T14:26:46;98956.10;;;28.92;48.82
65010;BME280;51556;50.002;22.014;2022-08-23T14:29:11;98950.92;;;29.08;48.86
65010;BME280;51556;50.002;22.014;2022-08-23T14:31:37;98956.88;;;29.22;48.55
65010;BME280;51556;50.002;22.014;2022-08-23T14:34:03;98955.30;;;29.35;48.25
65010;BME280;51556;50.002;22.014;2022-08-23T14:36:28;98957.48;;;29.51;48.03
65010;BME280;51556;50.002;22.014;2022-08-23T14:38:54;98949.63;;;29.71;47.91
65010;BME280;51556;50.002;22.014;2022-08-23T14:41:22;98954.46;;;29.99;46.98
65010;BME280;51556;50.002;22.014;2022-08-23T14:43:49;98958.30;;;30.21;46.56
65010;BME280;51556;50.002;22.014;2022-08-23T14:46:17;98958.37;;;30.35;45.74
65010;BME280;51556;50.002;22.014;2022-08-23T14:48:43;98961.99;;;30.30;45.41
65010;BME280;51556;50.002;22.014;2022-08-23T14:51:32;98966.23;;;30.45;45.09
65010;BME280;51556;50.002;22.014;2022-08-23T14:54:00;98968.64;;;30.58;44.30
65010;BME280;51556;50.002;22.014;2022-08-23T14:56:29;98968.95;;;30.67;44.56
65010;BME280;51556;50.002;22.014;2022-08-23T14:58:54;98970.20;;;30.70;44.27
65010;BME280;51556;50.002;22.014;2022-08-23T15:01:21;98971.29;;;30.79;44.93